createdAt,value
2023-01-23T00:01:27.931Z,45.60
2023-01-23T00:03:56.187Z,45.46
2023-01-23T00:06:24.520Z,45.09
2023-01-23T00:08:51.838Z,45.30
2023-01-23T00:11:22.619Z,45.22
2023-01-23T00:13:50.538Z,45.10
2023-01-23T00:16:22.348Z,45.15
2023-01-23T00:18:50.793Z,45.37
2023-01-23T00:21:20.547Z,45.47
2023-01-23T00:23:51.006Z,45.35
2023-01-23T00:26:21.309Z,45.32
2023-01-23T00:28:50.522Z,45.35
2023-01-23T00:31:30.516Z,45.28
2023-01-23T00:34:00.960Z,45.19
2023-01-23T00:36:31.051Z,45.09
2023-01-23T00:38:58.560Z,45.31
2023-01-23T00:41:26.543Z,45.32
2023-01-23T00:43:54.307Z,45.06
2023-01-23T00:46:22.096Z,45.14
2023-01-23T00:48:49.590Z,45.13
2023-01-23T00:51:17.639Z,45.22
2023-01-23T00:53:45.046Z,45.11
2023-01-23T00:56:12.487Z,45.18
2023-01-23T00:58:43.477Z,45.12
2023-01-23T01:01:13.988Z,45.19
2023-01-23T01:03:42.517Z,45.12
2023-01-23T01:06:10.496Z,45.12
2023-01-23T01:08:38.177Z,45.28
2023-01-23T01:11:06.215Z,45.24
2023-01-23T01:13:33.719Z,45.02
2023-01-23T01:16:04.126Z,45.07
2023-01-23T01:18:31.622Z,44.98
2023-01-23T01:20:59.324Z,45.04
2023-01-23T01:23:26.785Z,45.12
2023-01-23T01:25:58.876Z,45.02
2023-01-23T01:28:27.391Z,44.96
2023-01-23T01:30:54.790Z,45.02
2023-01-23T01:33:24.289Z,45.06
2023-01-23T01:35:52.500Z,44.89
2023-01-23T01:38:19.885Z,45.04
2023-01-23T01:40:47.445Z,45.02
2023-01-23T01:43:26.561Z,44.83
2023-01-23T01:45:56.552Z,45.00
2023-01-23T01:48:55.371Z,45.12
2023-01-23T01:51:28.603Z,44.82
2023-01-23T01:54:24.699Z,44.92
2023-01-23T01:57:01.138Z,45.33
2023-01-23T01:59:32.226Z,44.98
2023-01-23T02:02:09.623Z,45.24
2023-01-23T02:04:42.349Z,45.04
2023-01-23T02:07:20.939Z,45.01
2023-01-23T02:09:49.129Z,45.14
2023-01-23T02:12:16.501Z,44.82
2023-01-23T02:14:44.260Z,45.21
2023-01-23T02:17:11.782Z,44.88
2023-01-23T02:19:45.212Z,45.04
2023-01-23T02:22:35.567Z,44.95
2023-01-23T02:25:18.072Z,44.97
2023-01-23T02:27:46.594Z,45.15
2023-01-23T02:30:16.086Z,44.83
2023-01-23T02:32:43.969Z,45.09
2023-01-23T02:35:21.031Z,45.10
2023-01-23T02:37:52.682Z,44.92
2023-01-23T02:40:22.400Z,44.88
2023-01-23T02:42:50.557Z,44.79
2023-01-23T02:45:19.116Z,44.89
2023-01-23T02:47:52.726Z,45.00
2023-01-23T02:50:21.741Z,44.88
2023-01-23T02:52:51.043Z,44.88
2023-01-23T02:55:19.689Z,45.06
2023-01-23T02:57:47.514Z,44.79
2023-01-23T03:00:20.703Z,45.01
2023-01-23T03:02:50.874Z,44.93
2023-01-23T03:05:18.748Z,44.79
2023-01-23T03:07:46.056Z,44.99
2023-01-23T03:10:13.820Z,44.87
2023-01-23T03:12:45.274Z,45.02
2023-01-23T03:15:14.377Z,44.89
2023-01-23T03:17:41.619Z,44.98
2023-01-23T03:20:09.781Z,45.06
2023-01-23T03:22:37.126Z,44.87
2023-01-23T03:25:04.862Z,44.74
2023-01-23T03:27:33.771Z,44.82
2023-01-23T03:30:16.971Z,44.64
2023-01-23T03:32:45.276Z,45.04
2023-01-23T03:35:22.327Z,44.77
2023-01-23T03:37:54.542Z,44.94
2023-01-23T03:40:43.926Z,44.61
2023-01-23T03:43:15.063Z,44.71
2023-01-23T03:45:47.964Z,44.69
2023-01-23T03:48:15.382Z,44.68
2023-01-23T03:50:44.691Z,44.70
2023-01-23T03:53:12.001Z,44.90
2023-01-23T03:55:39.473Z,44.71
2023-01-23T03:58:07.180Z,44.73
2023-01-23T04:00:35.503Z,44.78
2023-01-23T04:03:06.787Z,45.04
2023-01-23T04:05:34.842Z,45.14
2023-01-23T04:08:03.928Z,45.14
2023-01-23T04:10:31.556Z,45.16
2023-01-23T04:13:04.585Z,45.09
2023-01-23T04:15:33.536Z,44.92
2023-01-23T04:18:03.109Z,45.00
2023-01-23T04:20:30.505Z,44.71
2023-01-23T04:22:58.751Z,44.84
2023-01-23T04:25:29.311Z,44.65
2023-01-23T04:27:59.707Z,44.77
2023-01-23T04:30:27.692Z,44.58
2023-01-23T04:32:56.051Z,44.80
2023-01-23T04:35:23.735Z,44.57
2023-01-23T04:37:52.589Z,44.60
2023-01-23T04:40:21.520Z,44.60
2023-01-23T04:42:55.985Z,44.61
2023-01-23T04:45:33.776Z,44.52
2023-01-23T04:48:19.534Z,44.43
2023-01-23T04:50:46.867Z,44.47
2023-01-23T04:53:15.029Z,44.45
2023-01-23T04:55:47.210Z,44.36
2023-01-23T04:58:17.716Z,44.54
2023-01-23T05:00:45.865Z,44.35
2023-01-23T05:03:14.974Z,44.41
2023-01-23T05:05:47.416Z,44.40
2023-01-23T05:08:14.965Z,44.33
2023-01-23T05:10:47.879Z,44.43
2023-01-23T05:13:18.050Z,44.54
2023-01-23T05:15:45.456Z,44.13
2023-01-23T05:18:13.367Z,44.19
2023-01-23T05:20:40.837Z,44.21
2023-01-23T05:23:08.180Z,44.25
2023-01-23T05:25:45.128Z,44.30
2023-01-23T05:28:12.718Z,44.27
2023-01-23T05:30:47.593Z,44.17
2023-01-23T05:33:23.800Z,44.27
2023-01-23T05:35:51.152Z,44.23
2023-01-23T05:38:19.218Z,44.15
2023-01-23T05:40:47.183Z,43.98
2023-01-23T05:43:15.284Z,44.16
2023-01-23T05:45:59.754Z,44.26
2023-01-23T05:48:33.871Z,44.09
2023-01-23T05:51:05.133Z,44.09
2023-01-23T05:53:32.415Z,44.08
2023-01-23T05:55:59.743Z,44.02
2023-01-23T05:58:28.080Z,44.18
2023-01-23T06:01:18.706Z,44.17
2023-01-23T06:04:04.407Z,44.07
2023-01-23T06:06:43.602Z,44.07
2023-01-23T06:09:11.603Z,44.06
2023-01-23T06:11:40.033Z,44.15
2023-01-23T06:14:09.683Z,44.23
2023-01-23T06:16:37.111Z,44.10
2023-01-23T06:19:05.435Z,44.28
2023-01-23T06:21:36.221Z,44.14
2023-01-23T06:24:04.317Z,44.14
2023-01-23T06:26:31.865Z,44.12
2023-01-23T06:28:59.285Z,44.20
2023-01-23T06:31:26.697Z,44.18
2023-01-23T06:33:58.272Z,44.11
2023-01-23T06:36:30.569Z,43.97
2023-01-23T06:38:58.817Z,44.06
2023-01-23T06:41:32.958Z,44.17
2023-01-23T06:44:03.987Z,43.90
2023-01-23T06:46:31.457Z,43.98
2023-01-23T06:48:59.223Z,43.93
2023-01-23T06:51:28.699Z,43.88
2023-01-23T06:53:57.740Z,43.81
2023-01-23T06:56:25.984Z,43.86
2023-01-23T06:58:53.494Z,43.98
2023-01-23T07:01:26.595Z,43.88
2023-01-23T07:04:14.199Z,43.82
2023-01-23T07:06:43.041Z,43.78
2023-01-23T07:09:12.334Z,43.80
2023-01-23T07:11:40.144Z,43.88
2023-01-23T07:14:07.728Z,43.90
2023-01-23T07:16:37.625Z,43.93
2023-01-23T07:19:05.957Z,43.76
2023-01-23T07:21:35.972Z,43.79
2023-01-23T07:24:03.519Z,43.93
2023-01-23T07:26:30.868Z,43.88
2023-01-23T07:28:58.644Z,43.87
2023-01-23T07:31:26.048Z,43.75
2023-01-23T07:33:53.320Z,43.88
2023-01-23T07:36:20.554Z,43.78
2023-01-23T07:38:47.869Z,43.90
2023-01-23T07:41:15.159Z,44.05
2023-01-23T07:43:42.415Z,44.04
2023-01-23T07:46:09.876Z,44.12
2023-01-23T07:48:37.787Z,44.00
2023-01-23T07:51:06.139Z,44.03
2023-01-23T07:53:33.599Z,44.26
2023-01-23T07:56:04.602Z,43.98
2023-01-23T07:58:32.308Z,44.04
2023-01-23T08:00:59.872Z,43.94
2023-01-23T08:03:29.098Z,44.16
2023-01-23T08:05:56.370Z,44.57
2023-01-23T08:08:23.608Z,41.01
2023-01-23T08:10:50.863Z,39.99
2023-01-23T08:13:18.244Z,39.56
2023-01-23T08:15:46.539Z,39.75
2023-01-23T08:18:13.836Z,39.34
2023-01-23T08:20:41.229Z,38.66
2023-01-23T08:23:08.596Z,38.53
2023-01-23T08:25:38.406Z,38.58
2023-01-23T08:28:05.701Z,38.52
2023-01-23T08:30:33.083Z,38.59
2023-01-23T08:33:00.360Z,38.56
2023-01-23T08:35:27.596Z,38.27
2023-01-23T08:37:56.008Z,38.33
2023-01-23T08:40:23.500Z,38.04
2023-01-23T08:42:50.862Z,38.13
2023-01-23T08:45:18.097Z,38.58
2023-01-23T08:47:45.428Z,39.10
2023-01-23T08:50:13.165Z,41.17
2023-01-23T08:52:40.535Z,40.31
2023-01-23T08:55:08.403Z,41.27
2023-01-23T08:57:35.851Z,41.95
2023-01-23T09:00:03.852Z,42.59
2023-01-23T09:02:31.349Z,45.18
2023-01-23T09:04:59.027Z,45.22
2023-01-23T09:07:26.271Z,42.49
2023-01-23T09:09:55.086Z,44.81
2023-01-23T09:12:22.391Z,45.93
2023-01-23T09:14:49.674Z,45.24
2023-01-23T09:17:16.981Z,42.83
2023-01-23T09:19:44.308Z,43.17
2023-01-23T09:22:11.801Z,44.18
2023-01-23T09:24:39.074Z,44.04
2023-01-23T09:27:06.426Z,44.18
2023-01-23T09:29:33.791Z,45.70
2023-01-23T09:32:02.091Z,44.66
2023-01-23T09:34:30.077Z,44.90
2023-01-23T09:36:57.296Z,46.89
2023-01-23T09:39:24.651Z,46.52
2023-01-23T09:41:52.181Z,47.52
2023-01-23T09:44:27.227Z,45.57
2023-01-23T09:47:02.438Z,43.57
2023-01-23T09:49:58.547Z,43.15
2023-01-23T09:52:35.648Z,42.95
2023-01-23T09:55:29.300Z,43.29
2023-01-23T09:57:57.773Z,45.09
2023-01-23T10:00:31.871Z,44.50
2023-01-23T10:03:03.349Z,44.33
2023-01-23T10:05:46.419Z,44.51
2023-01-23T10:08:25.799Z,45.12
2023-01-23T10:11:00.388Z,45.44
2023-01-23T10:14:03.378Z,45.77
2023-01-23T10:16:52.641Z,44.00
2023-01-23T10:19:38.412Z,44.04
2023-01-23T10:22:44.533Z,45.11
2023-01-23T10:25:19.709Z,44.77
2023-01-23T10:27:49.407Z,44.99
2023-01-23T10:30:33.442Z,45.16
2023-01-23T10:33:17.198Z,43.66
2023-01-23T10:35:50.747Z,44.43
2023-01-23T10:38:31.291Z,43.45
2023-01-23T10:41:13.809Z,44.93
2023-01-23T10:43:43.203Z,42.99
2023-01-23T10:46:19.382Z,42.89
2023-01-23T10:48:48.761Z,42.54
2023-01-23T10:51:39.076Z,42.56
2023-01-23T10:54:10.220Z,42.64
2023-01-23T10:56:56.129Z,42.43
2023-01-23T10:59:41.506Z,42.51
2023-01-23T11:02:14.755Z,43.37
2023-01-23T11:04:44.619Z,42.60
2023-01-23T11:07:26.448Z,42.27
2023-01-23T11:09:55.473Z,42.03
2023-01-23T11:12:24.447Z,42.53
2023-01-23T11:15:10.782Z,41.96
2023-01-23T11:17:39.464Z,43.78
2023-01-23T11:20:33.531Z,41.87
2023-01-23T11:23:10.993Z,43.20
2023-01-23T11:25:42.080Z,42.40
2023-01-23T11:28:25.084Z,43.50
2023-01-23T11:31:12.514Z,42.71
2023-01-23T11:33:53.930Z,42.29
2023-01-23T11:36:30.522Z,42.02
2023-01-23T11:39:04.993Z,42.47
2023-01-23T11:41:35.792Z,41.87
2023-01-23T11:44:16.796Z,42.17
2023-01-23T11:47:23.263Z,42.16
2023-01-23T11:50:54.353Z,42.36
2023-01-23T11:53:44.909Z,41.68
2023-01-23T11:56:52.694Z,41.78
2023-01-23T11:59:42.109Z,42.23
2023-01-23T12:02:32.452Z,41.78
2023-01-23T12:05:08.254Z,41.71
2023-01-23T12:07:57.206Z,41.59
2023-01-23T12:10:33.292Z,42.05
2023-01-23T12:13:43.294Z,41.81
2023-01-23T12:16:28.097Z,42.50
2023-01-23T12:19:27.633Z,42.46
2023-01-23T12:22:29.284Z,42.47
2023-01-23T12:25:12.143Z,42.90
2023-01-23T12:27:45.620Z,42.54
2023-01-23T12:30:38.876Z,41.79
2023-01-23T12:33:19.156Z,43.68
2023-01-23T12:36:08.023Z,43.99
2023-01-23T12:39:01.319Z,44.06
2023-01-23T12:41:38.086Z,44.19
2023-01-23T12:44:11.927Z,44.38
2023-01-23T12:47:05.113Z,44.39
2023-01-23T12:49:42.941Z,44.49
2023-01-23T12:52:25.767Z,44.60
2023-01-23T12:55:14.710Z,45.22
2023-01-23T12:57:59.566Z,45.11
2023-01-23T13:00:54.316Z,45.17
2023-01-23T13:03:45.694Z,45.25
2023-01-23T13:06:44.466Z,45.28
2023-01-23T13:09:50.342Z,45.15
2023-01-23T13:12:23.828Z,44.95
2023-01-23T13:15:15.605Z,44.65
2023-01-23T13:18:02.740Z,44.48
2023-01-23T13:20:52.777Z,44.77
2023-01-23T13:23:23.286Z,44.60
2023-01-23T13:26:11.454Z,44.33
2023-01-23T13:28:55.080Z,44.46
2023-01-23T13:31:28.271Z,44.44
2023-01-23T13:34:06.736Z,44.30
2023-01-23T13:36:42.542Z,44.62
2023-01-23T13:39:19.776Z,44.36
2023-01-23T13:41:49.639Z,44.50
2023-01-23T13:44:40.276Z,44.32
2023-01-23T14:24:58.257Z,43.98
2023-01-23T14:27:36.812Z,43.90
2023-01-23T14:30:18.645Z,43.71
2023-01-23T14:32:46.521Z,43.65
2023-01-23T14:35:26.668Z,43.69
2023-01-23T14:37:56.758Z,43.72
2023-01-23T14:40:28.103Z,43.63
2023-01-23T14:43:02.993Z,43.66
2023-01-23T14:45:33.585Z,43.63
2023-01-23T14:48:06.418Z,43.75
2023-01-23T14:50:34.481Z,44.12
2023-01-23T14:53:07.170Z,43.69
2023-01-23T14:55:39.282Z,43.78
2023-01-23T14:58:15.271Z,43.92
2023-01-23T15:00:43.285Z,43.88
2023-01-23T15:03:40.890Z,43.86
2023-01-23T15:06:22.921Z,43.75
2023-01-23T15:08:51.154Z,43.80
2023-01-23T15:11:27.166Z,43.78
2023-01-23T15:14:01.592Z,43.79
2023-01-23T15:16:38.003Z,43.93
2023-01-23T15:19:18.467Z,43.80
2023-01-23T15:21:45.807Z,43.78
2023-01-23T15:24:13.162Z,43.75
2023-01-23T15:26:45.559Z,43.80
2023-01-23T15:29:12.764Z,43.71
2023-01-23T15:31:40.179Z,43.56
2023-01-23T15:34:16.707Z,43.58
2023-01-23T15:36:50.433Z,43.61
2023-01-23T15:39:31.640Z,43.59
2023-01-23T15:42:19.082Z,43.66
2023-01-23T15:44:46.549Z,43.61
2023-01-23T15:47:13.778Z,43.54
2023-01-23T15:49:41.060Z,43.62
2023-01-23T15:52:17.291Z,43.71
2023-01-23T15:54:45.125Z,43.78
2023-01-23T15:57:13.402Z,43.65
2023-01-23T15:59:41.237Z,43.95
2023-01-23T16:02:30.586Z,44.06
2023-01-23T16:05:01.168Z,43.72
2023-01-23T16:07:34.588Z,43.82
2023-01-23T16:10:15.899Z,43.80
2023-01-23T16:12:44.009Z,43.77
2023-01-23T16:15:22.504Z,44.39
2023-01-23T16:17:50.515Z,43.78
2023-01-23T16:20:22.233Z,43.85
2023-01-23T16:22:53.012Z,43.94
2023-01-23T16:25:43.518Z,44.01
2023-01-23T16:28:17.466Z,44.41
2023-01-23T16:30:45.980Z,44.60
2023-01-23T16:33:13.684Z,44.10
2023-01-23T16:35:41.686Z,44.19
2023-01-23T16:38:27.171Z,44.02
2023-01-23T16:40:56.864Z,44.02
2023-01-23T16:43:26.017Z,43.87
2023-01-23T16:45:56.063Z,44.00
2023-01-23T16:48:27.493Z,44.05
2023-01-23T16:51:13.516Z,43.92
2023-01-23T16:53:43.848Z,44.10
2023-01-23T16:56:21.772Z,44.07
2023-01-23T16:58:49.980Z,44.00
2023-01-23T17:01:23.615Z,43.97
2023-01-23T17:04:02.529Z,44.13
2023-01-23T17:06:30.819Z,44.07
2023-01-23T17:08:58.133Z,44.19
2023-01-23T17:11:50.132Z,44.19
2023-01-23T17:14:25.313Z,44.25
2023-01-23T17:16:54.029Z,44.33
2023-01-23T17:19:31.241Z,44.29
2023-01-23T17:22:00.901Z,44.27
2023-01-23T17:24:28.524Z,44.31
2023-01-23T17:26:55.746Z,44.22
2023-01-23T17:29:24.646Z,44.13
2023-01-23T17:31:53.254Z,44.43
2023-01-23T17:34:23.240Z,44.13
2023-01-23T17:36:52.887Z,44.30
2023-01-23T17:39:20.694Z,44.41
2023-01-23T17:41:48.749Z,44.53
2023-01-23T17:44:15.990Z,44.40
2023-01-23T17:46:44.474Z,44.73
2023-01-23T17:49:27.955Z,44.92
2023-01-23T17:51:56.276Z,44.87
2023-01-23T17:54:23.585Z,44.82
2023-01-23T17:56:50.877Z,44.77
2023-01-23T17:59:18.334Z,45.05
2023-01-23T18:01:47.668Z,44.87
2023-01-23T18:04:20.302Z,44.66
2023-01-23T18:06:48.383Z,44.48
2023-01-23T18:09:16.463Z,44.72
2023-01-23T18:11:52.079Z,44.78
2023-01-23T18:14:37.684Z,44.67
2023-01-23T18:17:15.555Z,44.63
2023-01-23T18:19:43.056Z,44.40
2023-01-23T18:22:11.990Z,44.31
2023-01-23T18:24:39.703Z,44.24
2023-01-23T18:27:25.173Z,44.33
2023-01-23T18:30:10.751Z,44.33
2023-01-23T18:32:48.268Z,44.54
2023-01-23T18:36:03.024Z,44.15
2023-01-23T18:39:14.650Z,44.29
2023-01-23T18:42:14.623Z,44.74
2023-01-23T18:44:50.982Z,44.81
2023-01-23T18:47:18.991Z,44.82
2023-01-23T18:49:47.559Z,44.65
2023-01-23T18:52:19.455Z,44.76
2023-01-23T18:55:04.112Z,44.76
2023-01-23T18:57:55.947Z,45.01
2023-01-23T19:00:34.318Z,45.04
2023-01-23T19:03:13.760Z,44.94
2023-01-23T19:05:42.024Z,44.90
2023-01-23T19:08:30.720Z,45.05
2023-01-23T19:11:04.568Z,45.43
2023-01-23T19:13:34.676Z,45.52
2023-01-23T19:16:10.963Z,45.50
2023-01-23T19:18:48.656Z,45.36
2023-01-23T19:21:23.640Z,45.54
2023-01-23T19:24:04.530Z,45.39
2023-01-23T19:26:33.829Z,45.41
2023-01-23T19:29:19.115Z,45.37
2023-01-23T19:32:02.955Z,45.35
2023-01-23T19:34:32.205Z,45.52
2023-01-23T19:36:59.471Z,45.65
2023-01-23T19:39:26.729Z,45.97
2023-01-23T19:41:54.299Z,45.93
2023-01-23T19:44:25.118Z,45.79
2023-01-23T19:46:52.657Z,46.13
2023-01-23T19:49:20.265Z,46.07
2023-01-23T19:51:48.011Z,46.42
2023-01-23T19:54:16.131Z,46.36
2023-01-23T19:56:43.512Z,46.19
2023-01-23T19:59:11.409Z,46.03
2023-01-23T20:01:43.331Z,46.29
2023-01-23T20:04:17.755Z,46.12
2023-01-23T20:06:45.704Z,46.04
2023-01-23T20:09:16.401Z,46.08
2023-01-23T20:11:44.669Z,46.07
2023-01-23T20:14:12.402Z,46.10
2023-01-23T20:16:42.801Z,45.94
2023-01-23T20:19:15.130Z,46.12
2023-01-23T20:21:42.743Z,46.04
2023-01-23T20:24:10.480Z,46.00
2023-01-23T20:26:38.588Z,45.94
2023-01-23T20:29:08.648Z,45.92
2023-01-23T20:31:36.242Z,45.93
2023-01-23T20:34:04.027Z,45.82
2023-01-23T20:36:31.317Z,45.78
2023-01-23T20:38:58.703Z,45.98
2023-01-23T20:41:26.019Z,45.71
2023-01-23T20:43:53.416Z,45.84
2023-01-23T20:46:20.740Z,45.85
2023-01-23T20:48:48.171Z,45.79
2023-01-23T20:51:16.440Z,45.62
2023-01-23T20:53:44.576Z,45.83
2023-01-23T20:56:15.022Z,45.85
2023-01-23T20:59:02.984Z,45.71
2023-01-23T21:01:52.917Z,45.84
2023-01-23T21:04:21.522Z,45.73
2023-01-23T21:06:48.945Z,45.72
2023-01-23T21:09:16.337Z,45.63
2023-01-23T21:11:43.613Z,45.62
2023-01-23T21:14:11.136Z,45.50
2023-01-23T21:16:38.392Z,45.71
2023-01-23T21:19:05.622Z,45.65
2023-01-23T21:21:33.098Z,45.68
2023-01-23T21:24:00.860Z,45.64
2023-01-23T21:26:28.911Z,45.71
2023-01-23T21:28:58.488Z,45.58
2023-01-23T21:31:33.112Z,45.44
2023-01-23T21:34:09.269Z,45.69
2023-01-23T21:36:37.176Z,45.38
2023-01-23T21:39:06.236Z,45.46
2023-01-23T21:41:34.503Z,45.45
2023-01-23T21:44:01.768Z,45.36
2023-01-23T21:46:29.053Z,45.46
2023-01-23T21:48:56.322Z,45.29
2023-01-23T21:51:25.380Z,45.50
2023-01-23T21:53:52.630Z,45.44
2023-01-23T21:56:21.847Z,45.36
2023-01-23T21:58:50.089Z,45.30
2023-01-23T22:01:41.408Z,45.32
2023-01-23T22:04:22.363Z,45.19
2023-01-23T22:06:55.504Z,45.26
2023-01-23T22:09:24.870Z,45.28
2023-01-23T22:11:52.563Z,45.51
2023-01-23T22:14:19.925Z,45.65
2023-01-23T22:16:49.394Z,45.62
2023-01-23T22:19:22.089Z,44.18
2023-01-23T22:21:50.773Z,45.20
2023-01-23T22:24:18.332Z,45.64
2023-01-23T22:26:45.707Z,45.50
2023-01-23T22:29:13.915Z,45.63
2023-01-23T22:31:41.531Z,45.61
2023-01-23T22:34:08.949Z,45.55
2023-01-23T22:36:36.287Z,45.45
2023-01-23T22:39:03.597Z,45.61
2023-01-23T22:41:30.868Z,45.78
2023-01-23T22:44:01.271Z,45.69
2023-01-23T22:46:29.306Z,45.47
2023-01-23T22:48:56.624Z,45.65
2023-01-23T22:51:26.630Z,45.69
2023-01-23T22:53:55.356Z,45.73
2023-01-23T22:56:23.507Z,45.74
2023-01-23T22:58:52.497Z,45.28
2023-01-23T23:01:23.061Z,45.27
2023-01-23T23:03:50.574Z,45.29
2023-01-23T23:06:18.964Z,45.41
2023-01-23T23:08:47.829Z,45.25
2023-01-23T23:11:23.846Z,45.44
2023-01-23T23:13:51.938Z,45.61
2023-01-23T23:16:28.528Z,45.36
2023-01-23T23:18:58.070Z,45.32
2023-01-23T23:21:31.725Z,45.34
2023-01-23T23:24:00.608Z,45.33
2023-01-23T23:26:30.130Z,45.30
2023-01-23T23:29:00.534Z,44.44
2023-01-23T23:31:28.003Z,45.46
2023-01-23T23:33:55.483Z,45.29
2023-01-23T23:36:23.502Z,45.20
2023-01-23T23:38:50.872Z,45.01
2023-01-23T23:41:18.374Z,45.32
2023-01-23T23:43:45.753Z,45.11
2023-01-23T23:46:14.218Z,45.28
2023-01-23T23:48:43.659Z,45.12
2023-01-23T23:51:13.711Z,44.80
2023-01-23T23:53:41.421Z,45.01
2023-01-23T23:56:10.586Z,45.00
2023-01-23T23:58:38.050Z,44.85
